Aérodrome :
LOGIN :

S'inscrire | Disclaimer

   EN    FR    IT 

 










Légende :    VFR   VFR Marginal   IFR   IFR Intensif   IFR Très Intensif
Visi : 
Plafond : 
>= 8 km
>= 3000ft
5 à 8 km
1000 à 3000 ft
1500m à 5 km
500 à 1000 ft
800 à 1500m
200 à 500 ft
< 800m
< 200 ft
Symboles :   Orages  Brouillard  Fortes neiges  Fortes précipitations  Vent > 20 kt
SIGMETs :   Divers  Orages  Givrage  Turbulence  Onde Orograph.  Cendres Volcan.






- Altitude de l'aérodrome : 325 ft
- Code IATA : BES


LFRB - Brest

DERNIER METAR :
  • 182000Z AUTO 05011KT CAVOK 06/04 Q1031 NOSIG

METARs EXPIRÉS :
  • 181930Z AUTO 05010KT 9999 FEW021 06/04 Q1031 NOSIG
  • 181900Z AUTO 05010KT 9999 FEW015 OVC170 06/05 Q1030 NOSIG
  • 181830Z AUTO 05010KT CAVOK 06/05 Q1029 NOSIG
  • 181800Z AUTO 05009KT CAVOK 06/04 Q1029 NOSIG
  • 181730Z AUTO 05010KT CAVOK 06/04 Q1028 NOSIG

TAF TAF LFRB
Valide du 18 à 18h jusqu'au 20 à 00h UTC


181700Z 1818/1924 04010KT 9999 FEW030
PROB30
TEMPO 1903/1906 04005KT MIFG
ATIS : +33 2 98 32 02 71



MET'MAP, la Météo Aéronautique d'un coup d'oeil ! - Copyright ORBIFLY Décembre 2007 - Disclaimer

ORBIFLY MET'MAP TEAM :

Programmation & Développement : Alexandra Zaïnal
Sur une idée originale de : Baudouin d'Aumeries
Assistance à la programmation : Marc-Olivier Méhu
Soutien technique & logistique : Manuel Goepfert

Contact : metmap@orbifly.com




SOURCES & CREDITS :

   NOAA